sensor_id;sensor_type;location;lat;lon;timestamp;temperature;humidity
78647;DHT22;67961;43.460;3.762;2023-04-03T18:00:00;15.80;46.80
78647;DHT22;67961;43.460;3.762;2023-04-03T18:02:26;15.60;46.90
78647;DHT22;67961;43.460;3.762;2023-04-03T18:04:52;15.60;46.80
78647;DHT22;67961;43.460;3.762;2023-04-03T18:07:19;15.60;46.50
78647;DHT22;67961;43.460;3.762;2023-04-03T18:09:46;15.60;46.70
78647;DHT22;67961;43.460;3.762;2023-04-03T18:12:13;15.40;47.10
78647;DHT22;67961;43.460;3.762;2023-04-03T18:14:40;15.40;46.20
78647;DHT22;67961;43.460;3.762;2023-04-03T18:17:06;15.30;46.40
78647;DHT22;67961;43.460;3.762;2023-04-03T18:19:32;15.20;46.50
78647;DHT22;67961;43.460;3.762;2023-04-03T18:22:05;15.20;46.30
78647;DHT22;67961;43.460;3.762;2023-04-03T18:24:33;15.10;46.80
78647;DHT22;67961;43.460;3.762;2023-04-03T18:27:04;15.00;46.50
78647;DHT22;67961;43.460;3.762;2023-04-03T18:29:33;15.00;46.30
78647;DHT22;67961;43.460;3.762;2023-04-03T18:32:00;14.90;46.50
78647;DHT22;67961;43.460;3.762;2023-04-03T18:34:29;14.90;45.90
78647;DHT22;67961;43.460;3.762;2023-04-03T18:36:54;14.80;46.50
78647;DHT22;67961;43.460;3.762;2023-04-03T18:39:20;14.80;46.40
78647;DHT22;67961;43.460;3.762;2023-04-03T18:41:46;14.80;46.70
78647;DHT22;67961;43.460;3.762;2023-04-03T18:44:14;14.70;46.20
78647;DHT22;67961;43.460;3.762;2023-04-03T18:46:42;14.60;46.40
78647;DHT22;67961;43.460;3.762;2023-04-03T18:49:09;14.60;46.60
78647;DHT22;67961;43.460;3.762;2023-04-03T18:51:35;14.50;46.50
78647;DHT22;67961;43.460;3.762;2023-04-03T18:54:04;14.50;46.80
78647;DHT22;67961;43.460;3.762;2023-04-03T18:56:29;14.40;46.80
78647;DHT22;67961;43.460;3.762;2023-04-03T18:58:55;14.30;46.90
78647;DHT22;67961;43.460;3.762;2023-04-03T19:01:21;14.20;47.60
78647;DHT22;67961;43.460;3.762;2023-04-03T19:03:46;14.20;47.50
78647;DHT22;67961;43.460;3.762;2023-04-03T19:06:12;14.20;47.30
78647;DHT22;67961;43.460;3.762;2023-04-03T19:08:39;14.10;47.10
78647;DHT22;67961;43.460;3.762;2023-04-03T19:11:05;14.00;47.30
78647;DHT22;67961;43.460;3.762;2023-04-03T19:13:31;14.00;47.50
78647;DHT22;67961;43.460;3.762;2023-04-03T19:15:58;14.10;47.50
78647;DHT22;67961;43.460;3.762;2023-04-03T19:18:27;14.00;47.20
78647;DHT22;67961;43.460;3.762;2023-04-03T19:20:54;14.00;47.70
78647;DHT22;67961;43.460;3.762;2023-04-03T19:23:20;13.90;47.80
78647;DHT22;67961;43.460;3.762;2023-04-03T19:25:46;13.90;48.30
78647;DHT22;67961;43.460;3.762;2023-04-03T19:28:12;13.80;48.20
78647;DHT22;67961;43.460;3.762;2023-04-03T19:30:39;13.80;48.30
78647;DHT22;67961;43.460;3.762;2023-04-03T19:33:04;13.70;48.50
78647;DHT22;67961;43.460;3.762;2023-04-03T19:35:30;13.80;48.50
78647;DHT22;67961;43.460;3.762;2023-04-03T19:37:56;13.70;48.50
78647;DHT22;67961;43.460;3.762;2023-04-03T19:40:22;13.60;48.80
78647;DHT22;67961;43.460;3.762;2023-04-03T19:42:49;13.60;49.20
78647;DHT22;67961;43.460;3.762;2023-04-03T19:45:15;13.50;49.20
78647;DHT22;67961;43.460;3.762;2023-04-03T19:47:42;13.50;49.20
78647;DHT22;67961;43.460;3.762;2023-04-03T19:50:09;13.50;49.10
78647;DHT22;67961;43.460;3.762;2023-04-03T19:52:34;13.50;49.10
78647;DHT22;67961;43.460;3.762;2023-04-03T19:55:00;13.50;49.00
78647;DHT22;67961;43.460;3.762;2023-04-03T19:57:26;13.40;49.30
78647;DHT22;67961;43.460;3.762;2023-04-03T19:59:52;13.40;49.50
78647;DHT22;67961;43.460;3.762;2023-04-03T20:02:17;13.30;49.20
78647;DHT22;67961;43.460;3.762;2023-04-03T20:04:45;13.30;49.70
78647;DHT22;67961;43.460;3.762;2023-04-03T20:07:12;13.10;49.90
78647;DHT22;67961;43.460;3.762;2023-04-03T20:09:40;13.10;49.70
78647;DHT22;67961;43.460;3.762;2023-04-03T20:12:06;12.90;50.30
78647;DHT22;67961;43.460;3.762;2023-04-03T20:14:33;12.90;50.50
78647;DHT22;67961;43.460;3.762;2023-04-03T20:17:03;12.90;50.50
78647;DHT22;67961;43.460;3.762;2023-04-03T20:19:29;12.80;50.60
78647;DHT22;67961;43.460;3.762;2023-04-03T20:21:55;12.80;50.70
78647;DHT22;67961;43.460;3.762;2023-04-03T20:24:22;12.70;50.70
78647;DHT22;67961;43.460;3.762;2023-04-03T20:26:48;12.70;50.70
78647;DHT22;67961;43.460;3.762;2023-04-03T20:29:14;12.70;50.70
78647;DHT22;67961;43.460;3.762;2023-04-03T20:31:41;12.70;50.90
78647;DHT22;67961;43.460;3.762;2023-04-03T20:34:07;12.60;50.80
78647;DHT22;67961;43.460;3.762;2023-04-03T20:36:32;12.50;50.80
78647;DHT22;67961;43.460;3.762;2023-04-03T20:38:58;12.50;50.90
78647;DHT22;67961;43.460;3.762;2023-04-03T20:41:25;12.50;51.00
78647;DHT22;67961;43.460;3.762;2023-04-03T20:43:50;12.50;50.80
78647;DHT22;67961;43.460;3.762;2023-04-03T20:46:16;12.50;50.90
78647;DHT22;67961;43.460;3.762;2023-04-03T20:48:44;12.50;50.80
78647;DHT22;67961;43.460;3.762;2023-04-03T20:51:14;12.30;50.70
78647;DHT22;67961;43.460;3.762;2023-04-03T20:53:41;12.30;50.70
78647;DHT22;67961;43.460;3.762;2023-04-03T20:56:07;12.40;50.60
78647;DHT22;67961;43.460;3.762;2023-04-03T20:58:34;12.50;50.10
78647;DHT22;67961;43.460;3.762;2023-04-03T21:01:01;12.50;50.60
78647;DHT22;67961;43.460;3.762;2023-04-03T21:03:29;12.50;50.70
78647;DHT22;67961;43.460;3.762;2023-04-03T21:20:30;12.30;50.80
78647;DHT22;67961;43.460;3.762;2023-04-03T21:22:57;12.20;51.10
78647;DHT22;67961;43.460;3.762;2023-04-03T21:25:22;12.20;51.60
78647;DHT22;67961;43.460;3.762;2023-04-03T21:27:48;12.10;51.40
78647;DHT22;67961;43.460;3.762;2023-04-03T21:30:14;12.10;51.20
78647;DHT22;67961;43.460;3.762;2023-04-03T21:32:40;12.10;51.60
78647;DHT22;67961;43.460;3.762;2023-04-03T21:35:05;12.10;51.60
78647;DHT22;67961;43.460;3.762;2023-04-03T21:37:32;12.10;51.50
78647;DHT22;67961;43.460;3.762;2023-04-03T21:39:58;12.00;51.80
78647;DHT22;67961;43.460;3.762;2023-04-03T21:42:24;12.00;51.80
78647;DHT22;67961;43.460;3.762;2023-04-03T21:44:49;11.90;52.00
78647;DHT22;67961;43.460;3.762;2023-04-03T21:47:15;11.90;52.20
78647;DHT22;67961;43.460;3.762;2023-04-03T21:49:41;11.90;52.00
78647;DHT22;67961;43.460;3.762;2023-04-03T21:52:07;11.80;52.20
78647;DHT22;67961;43.460;3.762;2023-04-03T21:54:32;11.70;52.10
78647;DHT22;67961;43.460;3.762;2023-04-03T21:56:58;11.80;51.80
78647;DHT22;67961;43.460;3.762;2023-04-03T21:59:23;11.90;51.40
78647;DHT22;67961;43.460;3.762;2023-04-03T22:01:49;11.90;51.60
78647;DHT22;67961;43.460;3.762;2023-04-03T22:04:15;11.90;51.50
78647;DHT22;67961;43.460;3.762;2023-04-03T22:06:41;11.90;51.30
78647;DHT22;67961;43.460;3.762;2023-04-03T22:09:08;11.90;51.40
78647;DHT22;67961;43.460;3.762;2023-04-03T22:11:36;11.90;51.10
78647;DHT22;67961;43.460;3.762;2023-04-03T22:14:02;11.90;51.20
78647;DHT22;67961;43.460;3.762;2023-04-03T22:16:28;11.90;51.40
78647;DHT22;67961;43.460;3.762;2023-04-03T22:18:54;11.90;51.40
78647;DHT22;67961;43.460;3.762;2023-04-03T22:21:23;11.90;51.30
78647;DHT22;67961;43.460;3.762;2023-04-03T22:23:49;11.90;51.30
78647;DHT22;67961;43.460;3.762;2023-04-03T22:26:15;11.90;51.20
78647;DHT22;67961;43.460;3.762;2023-04-03T22:28:45;11.80;51.20
78647;DHT22;67961;43.460;3.762;2023-04-03T22:31:13;11.70;51.10
78647;DHT22;67961;43.460;3.762;2023-04-03T22:33:41;11.70;51.00
78647;DHT22;67961;43.460;3.762;2023-04-03T22:36:08;11.70;51.10
78647;DHT22;67961;43.460;3.762;2023-04-03T22:38:35;11.50;51.50
78647;DHT22;67961;43.460;3.762;2023-04-03T22:41:03;11.50;51.60
78647;DHT22;67961;43.460;3.762;2023-04-03T22:43:31;11.40;51.80
78647;DHT22;67961;43.460;3.762;2023-04-03T22:45:59;11.40;51.90
78647;DHT22;67961;43.460;3.762;2023-04-03T22:48:24;11.30;51.60
78647;DHT22;67961;43.460;3.762;2023-04-03T22:50:50;11.20;51.90
78647;DHT22;67961;43.460;3.762;2023-04-03T22:53:16;11.20;51.90
78647;DHT22;67961;43.460;3.762;2023-04-03T22:55:42;11.10;51.80
78647;DHT22;67961;43.460;3.762;2023-04-03T22:58:08;11.10;51.60
78647;DHT22;67961;43.460;3.762;2023-04-03T23:00:34;11.10;51.60
78647;DHT22;67961;43.460;3.762;2023-04-03T23:03:00;11.10;51.60
78647;DHT22;67961;43.460;3.762;2023-04-03T23:05:28;11.10;51.50
78647;DHT22;67961;43.460;3.762;2023-04-03T23:07:54;11.10;51.50
78647;DHT22;67961;43.460;3.762;2023-04-03T23:10:20;11.10;51.60
78647;DHT22;67961;43.460;3.762;2023-04-03T23:12:46;11.10;51.40
78647;DHT22;67961;43.460;3.762;2023-04-03T23:15:12;11.10;51.20
78647;DHT22;67961;43.460;3.762;2023-04-03T23:17:42;11.00;51.60
78647;DHT22;67961;43.460;3.762;2023-04-03T23:20:08;11.10;51.70
78647;DHT22;67961;43.460;3.762;2023-04-03T23:22:34;11.10;51.60
78647;DHT22;67961;43.460;3.762;2023-04-03T23:25:00;11.10;51.50
78647;DHT22;67961;43.460;3.762;2023-04-03T23:27:26;11.10;51.40
78647;DHT22;67961;43.460;3.762;2023-04-03T23:29:52;11.00;51.50
78647;DHT22;67961;43.460;3.762;2023-04-03T23:32:17;11.00;51.50
78647;DHT22;67961;43.460;3.762;2023-04-03T23:34:43;10.90;51.50
78647;DHT22;67961;43.460;3.762;2023-04-03T23:37:12;10.90;51.40
78647;DHT22;67961;43.460;3.762;2023-04-03T23:39:37;10.90;51.70
78647;DHT22;67961;43.460;3.762;2023-04-03T23:42:03;10.90;51.80
78647;DHT22;67961;43.460;3.762;2023-04-03T23:44:33;10.80;51.90
78647;DHT22;67961;43.460;3.762;2023-04-03T23:46:59;10.80;52.00
78647;DHT22;67961;43.460;3.762;2023-04-03T23:49:24;10.60;51.90
78647;DHT22;67961;43.460;3.762;2023-04-03T23:51:50;10.60;51.80
78647;DHT22;67961;43.460;3.762;2023-04-03T23:54:16;10.60;51.70
78647;DHT22;67961;43.460;3.762;2023-04-03T23:56:42;10.60;52.10
78647;DHT22;67961;43.460;3.762;2023-04-03T23:59:07;10.50;51.90
